Alto, NM

9:55 PM MDT on September 15, 2014 (GMT -0600)
Little Creek | Change Station
CLOSE
Current Station
Personal Weather Station
Location: Alto, NM
Elevation: 7182 ft
Nearby Weather Stations
Active Advisory: Special Statement

Elev 7182 ft 33.41 °N, 105.66 °W | Updated 41 minutes ago

Overcast
Overcast
59.2 °F
Feels Like 59.2 °F
N
4.2
Wind Variable Wind from East

Today
High -- | Low -- °F
--% Chance of Precip.
Yesterday
High -- | Low -- °F
Precip. -- in
6:46 AM 7:08 PM
Waning Gibbous, 49% visible
Pressure 30.42 in
Visibility 10.0 miles
Clouds Few 500 ft
Dew Point 58 °F
Humidity 94%
Rainfall 0.11 in
Snow Depth 0 in , 3 in , 14 in
UV 0 out of 12
Pollen 8.90 out of 12
Air Quality Not available.
Flu Activity Not available.
METAR KSRR 160335Z AUTO 13007KT 10SM FEW005 15/14 A3042 RMK AO2

More Conditions Fewer Conditions

Pressure 30.42 in
Visibility 10.0 miles
Clouds Few 500 ft
Dew Point 58 °F
Humidity 94%
Rainfall 0.11 in
Snow Depth 0 in , 3 in , 14 in
UV 0 out of 12
Pollen 8.90 out of 12
Air Quality Not available.
Flu Activity Not available.
METAR KSRR 160335Z AUTO 13007KT 10SM FEW005 15/14 A3042 RMK AO2

More Conditions Fewer Conditions

Nowcast | as of 9:05 PM MDT on September 15, 2014

Scattered showers and thunderstorms will continue to move very slowly over portions of central New Mexico through the evening hours. The strongest thunderstorms will produce local moderate to heavy downpours resulting in a three quarters of an inch of rain in 30 minutes. Locations along the Interstate 25 corridor including Isleta Pueblo...Los Lunas...Bernardo...San Acacia...Lemitar and Socorro could be impacted by heavy rain...lightning...gusty outflows and fast moving runoffs. Isolated thunderstorms will also roam the northern higher terrain...including the area from Costilla to Vermejo Park. Be prepared for fast moving water through normally dry arroyos and creeks and across low water crossings.

×

10-Day Weather Forecast

Almanac

Astronomy

Sep. 15, 2014 Rise Set
Actual Time 6:46 AM MDT 7:08 PM MDT
Civil Twilight 6:21 AM MDT 7:33 PM MDT
Nautical Twilight 5:52 AM MDT 8:02 PM MDT
Astronomical Twilight 5:22 AM MDT 8:32 PM MDT
Moon No Moon Rise 1:31 PM MDT (9/15)
Length of Visible Light 13h 12m
Length of Day
12h 22m
Tomorrow will be 2m 2s shorter.
Waning Gibbous, 49% of the Moon is Illuminated
Today
Waning Gibbous
Sep 24
New
Oct 1
First Quarter
Oct 8
Full
Oct 15
Last Quarter

Today's Extremes

State Highs State Lows

Community

WunderPhotos

Upload Photos

1,753,693 photos uploaded!

Nearby

Snow Depth

Station Depth Elevation
Hopewell 0 in 10000 ft
Wesner Springs 3 in 11120 ft
Silver Creek Divide 14 in 9000 ft
Sierra Blanca 1 in 10280 ft
Santa Fe 1 in 11445 ft

Earthquake Activity

City Distance Mag. Time & Date
No recent earthquake activity has been reported nearby.
Minimum magnitude displayed is 2.5.

Coastal Water Temperatures

Place Temperature
No Stations Reporting

Nearby Weather Stations